createdAt,value
2023-02-27T00:00:15.021Z,8.00
2023-02-27T00:02:46.999Z,6.93
2023-02-27T00:05:14.481Z,7.00
2023-02-27T00:07:41.511Z,6.13
2023-02-27T00:10:09.882Z,6.28
2023-02-27T00:12:38.471Z,5.15
2023-02-27T00:15:18.385Z,5.10
2023-02-27T00:17:45.702Z,4.93
2023-02-27T00:20:14.745Z,4.78
2023-02-27T00:22:42.465Z,4.90
2023-02-27T00:25:10.329Z,5.40
2023-02-27T00:27:37.673Z,5.43
2023-02-27T00:30:10.870Z,4.72
2023-02-27T00:32:37.718Z,5.50
2023-02-27T00:35:06.273Z,15.00
2023-02-27T00:37:34.532Z,11.65
2023-02-27T00:40:01.662Z,8.02
2023-02-27T00:42:30.937Z,5.80
2023-02-27T00:44:58.050Z,5.80
2023-02-27T00:47:25.062Z,7.13
2023-02-27T00:49:52.083Z,11.38
2023-02-27T00:52:18.927Z,10.43
2023-02-27T00:54:45.788Z,7.13
2023-02-27T00:57:12.577Z,6.20
2023-02-27T00:59:39.873Z,5.75
2023-02-27T01:02:06.855Z,5.77
2023-02-27T01:04:33.673Z,5.43
2023-02-27T01:07:00.548Z,4.88
2023-02-27T01:09:27.492Z,5.75
2023-02-27T01:11:54.272Z,6.57
2023-02-27T01:14:21.206Z,5.22
2023-02-27T01:16:48.101Z,4.78
2023-02-27T01:19:15.808Z,6.10
2023-02-27T01:21:42.705Z,5.30
2023-02-27T01:24:10.672Z,4.60
2023-02-27T01:26:38.031Z,5.07
2023-02-27T01:29:06.491Z,4.75
2023-02-27T01:31:33.915Z,4.63
2023-02-27T01:34:00.913Z,4.90
2023-02-27T01:36:28.142Z,5.45
2023-02-27T01:38:55.075Z,5.22
2023-02-27T01:41:21.999Z,5.05
2023-02-27T01:44:03.795Z,4.50
2023-02-27T01:46:32.106Z,4.65
2023-02-27T01:49:05.672Z,4.95
2023-02-27T01:51:37.166Z,4.50
2023-02-27T01:54:07.362Z,4.20
2023-02-27T01:56:34.645Z,4.60
2023-02-27T01:59:09.013Z,4.53
2023-02-27T02:01:36.420Z,4.15
